Time;durP1;ratioP1;P1;durP2;ratioP2;P2;SDS_P1;SDS_P2;PMS_P1;PMS_P2;Temp;Humidity;BMP_temperature;BMP_pressure;BME280_temperature;BME280_humidity;BME280_pressure;Samples;Min_cycle;Max_cycle;Signal;HPM_P1;HPM_P2
2022/06/13 00:01:39;;;;;;;12.43;7.47;;;;;;;18.28;88.22;100435.38;3670174;80;99298;-86
2022/06/13 00:06:40;;;;;;;10.88;7.37;;;;;;;18.28;88.93;100431.19;3573145;81;99493;-86
2022/06/13 00:11:42;;;;;;;12.50;7.17;;;;;;;18.27;88.80;100431.02;3660886;79;99292;-85
2022/06/13 00:16:43;;;;;;;15.03;7.90;;;;;;;18.25;89.52;100425.70;3648658;79;99038;-85
2022/06/13 00:21:44;;;;;;;12.87;7.53;;;;;;;18.24;90.04;100419.33;3688653;78;98769;-86
2022/06/13 00:26:45;;;;;;;14.33;8.47;;;;;;;18.21;90.44;100417.39;3591219;80;99080;-86
2022/06/13 00:31:46;;;;;;;13.53;7.70;;;;;;;18.18;90.69;100416.86;3699080;79;99038;-86
2022/06/13 00:36:48;;;;;;;12.77;7.90;;;;;;;18.14;90.76;100418.16;3665190;79;99434;-86
2022/06/13 00:41:50;;;;;;;14.30;8.33;;;;;;;18.10;90.84;100404.27;3704172;79;99083;-86
2022/06/13 00:46:52;;;;;;;15.03;8.35;;;;;;;18.06;91.12;100402.78;3690856;79;98761;-86
2022/06/13 00:52:16;;;;;;;14.53;7.93;;;;;;;18.00;91.27;100401.71;3681429;79;98833;-86
2022/06/13 00:57:22;;;;;;;13.25;8.63;;;;;;;17.93;91.38;100385.92;3652893;79;99136;-86
2022/06/13 01:02:24;;;;;;;14.95;8.65;;;;;;;17.87;91.41;100382.06;3668511;79;98990;-86
2022/06/13 01:07:28;;;;;;;16.32;8.88;;;;;;;17.83;91.69;100382.73;3658044;79;98957;-85
2022/06/13 01:12:30;;;;;;;13.72;8.35;;;;;;;17.78;92.09;100381.86;3692105;79;98994;-86
2022/06/13 01:17:49;;;;;;;12.82;8.28;;;;;;;17.74;92.17;100379.73;3648069;79;99133;-85
2022/06/13 01:23:24;;;;;;;14.33;9.40;;;;;;;17.69;92.30;100367.70;3624131;81;98727;-85
2022/06/13 01:29:12;;;;;;;15.08;9.90;;;;;;;17.65;92.59;100371.15;3600854;81;99108;-86
2022/06/13 01:34:41;;;;;;;15.65;11.28;;;;;;;17.61;92.82;100361.30;3633984;80;98815;-85
2022/06/13 01:40:05;;;;;;;15.95;10.88;;;;;;;17.55;92.84;100354.03;3668985;79;99213;-86
2022/06/13 01:45:36;;;;;;;21.80;15.48;;;;;;;17.50;92.74;100348.19;3685422;79;99179;-85
2022/06/13 01:51:01;;;;;;;21.50;16.10;;;;;;;17.44;92.67;100345.09;3687053;79;99618;-84
2022/06/13 01:56:12;;;;;;;20.32;15.20;;;;;;;17.40;93.17;100338.03;3665057;79;99542;-85
2022/06/13 02:01:29;;;;;;;23.02;16.75;;;;;;;17.36;93.49;100343.63;3673379;79;98987;-86
2022/06/13 02:06:36;;;;;;;21.10;17.02;;;;;;;17.34;93.86;100341.09;3661816;79;99554;-85
2022/06/13 02:11:46;;;;;;;;;;;;;;;17.31;93.93;100340.54;3677145;78;26314;-85
2022/06/13 02:17:07;;;;;;;19.15;15.15;;;;;;;17.29;95.72;100338.80;3676672;79;84658;-86
2022/06/13 02:22:16;;;;;;;18.27;14.03;;;;;;;17.25;94.33;100331.11;3654835;80;99079;-86
2022/06/13 02:27:22;;;;;;;21.68;14.75;;;;;;;17.24;94.32;100339.28;3671462;79;99117;-86
2022/06/13 02:32:29;;;;;;;21.40;14.78;;;;;;;17.24;94.58;100331.73;3699344;79;99172;-86
2022/06/13 02:37:35;;;;;;;16.53;12.63;;;;;;;17.22;94.69;100335.52;3663519;79;99686;-86
2022/06/13 02:42:39;;;;;;;;;;;;;;;17.20;94.73;100332.39;3676562;79;99221;-86
2022/06/13 02:47:49;;;;;;;21.93;13.90;;;;;;;17.19;96.08;100340.56;3704643;79;85081;-85
2022/06/13 02:53:11;;;;;;;20.20;14.43;;;;;;;17.16;94.66;100337.22;3674167;79;99248;-86
2022/06/13 02:58:26;;;;;;;18.20;14.07;;;;;;;17.12;94.76;100335.72;3636310;79;99373;-86
2022/06/13 03:03:38;;;;;;;21.82;14.95;;;;;;;17.09;94.75;100336.55;3662420;79;99389;-86
2022/06/13 03:09:11;;;;;;;21.75;14.28;;;;;;;17.10;95.06;100318.66;3669567;79;99248;-86
2022/06/13 03:14:33;;;;;;;21.70;14.23;;;;;;;17.09;94.99;100300.41;3678206;79;99220;-85
2022/06/13 03:19:55;;;;;;;21.52;15.88;;;;;;;17.08;95.11;100294.07;3672155;79;99556;-87
2022/06/13 03:25:10;;;;;;;25.52;18.70;;;;;;;17.04;94.00;100296.71;3699841;79;99546;-86
2022/06/13 03:30:20;;;;;;;21.03;15.40;;;;;;;16.94;94.10;100318.55;3680405;79;99565;-86
2022/06/13 03:35:21;;;;;;;18.95;14.50;;;;;;;16.84;94.21;100314.72;3684854;78;26523;-85
2022/06/13 03:40:27;;;;;;;21.80;15.00;;;;;;;16.84;94.92;100298.66;3683027;79;98972;-85
2022/06/13 03:45:42;;;;;;;25.60;17.40;;;;;;;16.90;94.91;100289.40;3658617;79;99039;-85
2022/06/13 03:50:50;;;;;;;24.13;14.93;;;;;;;16.93;94.53;100313.59;3702009;78;99685;-86
2022/06/13 03:56:12;;;;;;;17.77;13.88;;;;;;;16.94;94.50;100322.73;3590059;80;99238;-86
2022/06/13 04:01:21;;;;;;;16.82;12.75;;;;;;;17.01;95.19;100308.70;3649599;79;99186;-86
2022/06/13 04:06:39;;;;;;;19.52;13.72;;;;;;;17.13;95.29;100323.38;3701960;78;99505;-86
2022/06/13 04:11:54;;;;;;;17.87;13.28;;;;;;;17.24;95.98;100338.69;3666069;79;26247;-87
2022/06/13 04:17:22;;;;;;;19.87;13.70;;;;;;;17.32;95.25;100346.28;3658192;78;99220;-87
2022/06/13 04:22:35;;;;;;;18.67;14.93;;;;;;;17.36;95.00;100347.80;3678989;78;99227;-86
2022/06/13 04:28:10;;;;;;;18.15;14.10;;;;;;;17.42;94.33;100343.36;3674695;78;99210;-86
2022/06/13 04:33:20;;;;;;;18.17;14.07;;;;;;;17.48;94.81;100350.00;3674458;78;99481;-86
2022/06/13 04:38:23;;;;;;;19.73;12.35;;;;;;;17.55;94.78;100338.73;3659677;78;99522;-86
2022/06/13 04:43:34;;;;;;;20.20;14.63;;;;;;;17.62;94.24;100358.69;3720072;78;99505;-86
2022/06/13 04:48:39;;;;;;;19.65;14.95;;;;;;;17.66;93.95;100352.46;3674808;78;99500;-86
2022/06/13 04:54:25;;;;;;;19.52;14.28;;;;;;;17.72;94.11;100336.84;3712379;78;25875;-86
2022/06/13 04:59:28;;;;;;;20.93;16.07;;;;;;;17.79;93.97;100338.08;3661391;78;99600;-86
2022/06/13 05:04:32;;;;;;;17.92;14.87;;;;;;;17.86;93.89;100335.95;3693905;78;99033;-86
2022/06/13 05:09:37;;;;;;;19.55;15.20;;;;;;;17.93;93.57;100338.58;3680009;79;99509;-86
2022/06/13 05:14:44;;;;;;;20.80;16.43;;;;;;;18.01;93.38;100323.31;3685206;79;99140;-86
2022/06/13 05:20:05;;;;;;;21.40;15.53;;;;;;;18.11;92.99;100303.41;3669677;79;99606;-86
2022/06/13 05:25:34;;;;;;;20.02;14.98;;;;;;;18.19;93.00;100320.93;3695436;78;99407;-85
2022/06/13 05:30:36;;;;;;;21.97;15.70;;;;;;;18.32;92.81;100305.14;3684430;78;99379;-86
2022/06/13 05:35:43;;;;;;;20.63;14.73;;;;;;;18.53;92.78;100317.83;3699517;78;25994;-86
2022/06/13 05:40:43;;;;;;;18.85;14.50;;;;;;;18.79;92.80;100318.98;3679192;78;99002;-86
2022/06/13 05:45:44;;;;;;;19.05;15.75;;;;;;;19.15;93.11;100313.31;3675553;78;99034;-86
2022/06/13 05:50:45;;;;;;;17.43;14.70;;;;;;;19.51;92.44;100320.97;3686609;78;99594;-86
2022/06/13 05:55:48;;;;;;;20.45;15.03;;;;;;;19.91;91.90;100309.66;3696965;78;99150;-86
2022/06/13 06:00:53;;;;;;;23.65;16.07;;;;;;;20.29;91.18;100314.75;3657307;79;99538;-86
2022/06/13 06:05:55;;;;;;;22.67;19.27;;;;;;;20.58;89.77;100311.23;3682240;78;26428;-86
2022/06/13 06:10:58;;;;;;;20.32;18.00;;;;;;;20.75;88.56;100315.48;3690333;78;99650;-86
2022/06/13 06:16:01;;;;;;;19.30;16.10;;;;;;;20.95;87.44;100342.05;3660028;79;98994;-85
2022/06/13 06:21:02;;;;;;;25.10;19.62;;;;;;;21.14;86.33;100349.39;3691409;78;99229;-86
2022/06/13 06:26:06;;;;;;;19.73;17.40;;;;;;;21.10;84.61;100367.54;3700825;78;99241;-86
2022/06/13 06:31:07;;;;;;;23.52;19.10;;;;;;;21.05;83.56;100375.89;3675198;78;99203;-86
2022/06/13 06:36:12;;;;;;;28.30;21.83;;;;;;;21.04;82.80;100384.73;3685489;78;26480;-86
2022/06/13 06:41:14;;;;;;;31.55;23.73;;;;;;;20.87;82.08;100385.42;3587870;80;99158;-87
2022/06/13 06:46:15;;;;;;;29.42;20.88;;;;;;;20.63;81.99;100379.98;3670543;78;99346;-86
2022/06/13 06:51:16;;;;;;;26.00;18.95;;;;;;;20.43;82.12;100379.39;3600289;80;99477;-85
2022/06/13 07:01:37;;;;;;;19.82;14.80;;;;;;;19.93;82.13;100266.09;3623555;80;99221;-87
2022/06/13 07:06:38;;;;;;;16.60;12.63;;;;;;;19.65;82.75;100285.06;3608519;80;99560;-88
2022/06/13 07:11:54;;;;;;;19.17;14.17;;;;;;;19.52;82.88;100287.64;3655862;80;25976;-89
2022/06/13 07:16:58;;;;;;;19.65;15.50;;;;;;;19.37;83.11;100298.41;3655782;80;99155;-88
2022/06/13 07:22:00;;;;;;;19.27;15.23;;;;;;;19.25;83.32;100330.42;3572447;79;99019;-90
2022/06/13 07:27:02;;;;;;;21.07;16.12;;;;;;;19.09;83.70;100356.91;3558896;82;99566;-89
2022/06/13 07:32:22;;;;;;;19.90;15.72;;;;;;;18.92;84.14;100394.38;3566603;81;99257;-89
2022/06/13 07:42:36;;;;;;;18.23;14.23;;;;;;;18.62;85.23;100352.25;3592988;81;99245;-88
2022/06/13 07:47:38;;;;;;;18.02;14.55;;;;;;;18.54;85.35;100355.00;3597660;81;98886;-88
2022/06/13 07:52:39;;;;;;;20.52;14.70;;;;;;;18.48;85.58;100370.67;3604207;81;99029;-87
2022/06/13 07:57:40;;;;;;;20.67;17.63;;;;;;;18.45;85.86;100365.97;3603568;80;99162;-89
2022/06/13 08:02:41;;;;;;;23.23;17.77;;;;;;;18.47;86.46;100348.20;3573322;81;99171;-89
2022/06/13 08:07:42;;;;;;;22.90;17.37;;;;;;;18.66;88.25;100351.56;3547341;81;99540;-90
2022/06/13 08:12:45;;;;;;;21.87;17.13;;;;;;;18.84;88.54;100347.75;3609213;80;99475;-90
2022/06/13 08:17:46;;;;;;;24.93;16.03;;;;;;;19.17;89.65;100346.53;3592299;81;99019;-90
2022/06/13 08:22:49;;;;;;;22.47;14.20;;;;;;;19.59;89.84;100356.63;3609644;81;99471;-89
2022/06/13 08:27:50;;;;;;;16.05;11.20;;;;;;;20.16;90.05;100352.45;3591360;81;99307;-90
2022/06/13 08:32:51;;;;;;;19.00;10.73;;;;;;;20.84;89.46;100357.56;3628806;80;99256;-88
2022/06/13 08:37:52;;;;;;;12.75;8.33;;;;;;;21.38;87.62;100365.98;3585293;80;99105;-88
2022/06/13 08:42:59;;;;;;;11.53;5.77;;;;;;;21.75;85.36;100375.54;3621861;81;98993;-88
2022/06/13 08:48:11;;;;;;;11.70;5.05;;;;;;;21.98;82.71;100371.69;3602241;81;98709;-87
2022/06/13 08:53:27;;;;;;;9.88;4.50;;;;;;;22.25;81.62;100381.70;3597732;80;98949;-87
2022/06/13 08:58:53;;;;;;;10.93;4.53;;;;;;;22.45;79.95;100388.40;3602530;81;98587;-88
2022/06/13 09:04:06;;;;;;;10.82;4.67;;;;;;;22.67;79.67;100382.89;3526715;82;99215;-87
2022/06/13 09:09:33;;;;;;;8.23;3.40;;;;;;;22.93;79.61;100395.50;3592719;81;99029;-86
2022/06/13 09:14:39;;;;;;;10.50;3.37;;;;;;;23.21;77.54;100388.00;3532857;81;98827;-88
2022/06/13 09:20:15;;;;;;;11.63;3.20;;;;;;;23.46;76.16;100389.92;3597451;80;98975;-85
2022/06/13 09:25:24;;;;;;;9.17;2.10;;;;;;;23.66;73.82;100389.48;3569914;82;99165;-86
2022/06/13 09:30:30;;;;;;;4.60;2.22;;;;;;;23.77;71.67;100388.41;3558654;81;98842;-85
2022/06/13 09:35:46;;;;;;;6.50;2.30;;;;;;;24.00;71.49;100375.16;3566656;82;25827;-85
2022/06/13 09:40:55;;;;;;;8.30;1.80;;;;;;;24.33;69.69;100378.86;3563216;82;98779;-86
2022/06/13 09:46:10;;;;;;;6.47;1.65;;;;;;;24.52;67.62;100374.77;3611889;80;99018;-85
2022/06/13 09:51:45;;;;;;;;;;;;;;;24.91;65.01;100387.80;3629852;80;98786;-86
2022/06/13 09:56:51;;;;;;;9.28;2.37;;;;;;;25.44;62.63;100378.95;3610312;81;85542;-87
2022/06/13 10:02:04;;;;;;;6.50;1.57;;;;;;;26.07;62.72;100375.05;3607314;80;98794;-86
2022/06/13 10:07:16;;;;;;;5.00;1.75;;;;;;;26.22;59.46;100380.05;3615359;81;98844;-86
2022/06/13 10:12:38;;;;;;;8.45;2.40;;;;;;;26.34;58.06;100369.76;3600786;81;25813;-86
2022/06/13 10:17:52;;;;;;;6.37;1.40;;;;;;;26.66;57.21;100364.58;3605460;81;98811;-86
2022/06/13 10:23:33;;;;;;;8.08;1.82;;;;;;;27.24;55.55;100356.02;3609426;80;98713;-86
2022/06/13 10:29:12;;;;;;;5.85;2.10;;;;;;;27.66;53.36;100353.47;3587833;81;98712;-85
2022/06/13 10:35:00;;;;;;;6.05;1.60;;;;;;;28.08;51.74;100355.95;3602051;81;98938;-85
2022/06/13 10:40:05;;;;;;;8.88;1.70;;;;;;;28.79;51.29;100348.78;3569108;82;98983;-86
2022/06/13 10:45:08;;;;;;;;;;;;;;;29.18;50.68;100347.64;3571642;82;98810;-86
2022/06/13 10:50:26;;;;;;;7.47;2.20;;;;;;;29.71;46.28;100359.04;3551189;82;85464;-85
2022/06/13 10:55:33;;;;;;;5.70;1.65;;;;;;;29.81;46.94;100379.58;3573596;82;99197;-85
2022/06/13 11:00:34;;;;;;;7.60;1.70;;;;;;;29.68;46.06;100379.27;3555330;82;98795;-85
2022/06/13 11:05:59;;;;;;;6.78;2.05;;;;;;;29.48;42.83;100372.30;3562354;82;98691;-89
2022/06/13 11:11:13;;;;;;;4.60;1.65;;;;;;;29.11;42.16;100386.39;3560524;82;98827;-85
2022/06/13 11:27:40;;;;;;;4.70;1.70;;;;;;;29.22;43.08;100385.05;3647703;80;99205;-85
2022/06/13 11:32:41;;;;;;;11.53;2.50;;;;;;;29.27;42.88;100387.14;3596780;81;99336;-84
2022/06/13 11:37:42;;;;;;;6.20;1.80;;;;;;;29.68;40.60;100384.16;3597981;79;99179;-85
2022/06/13 11:42:48;;;;;;;5.70;1.90;;;;;;;29.83;41.35;100369.92;3644276;78;98841;-85
2022/06/13 11:47:50;;;;;;;7.58;2.00;;;;;;;29.83;41.39;100384.12;3667378;79;98864;-86
2022/06/13 11:58:26;;;;;;;6.10;2.27;;;;;;;29.46;41.31;100411.75;3676839;79;99024;-83
2022/06/13 12:03:28;;;;;;;6.70;1.85;;;;;;;29.31;40.83;100418.88;3692518;79;98931;-83
2022/06/13 12:08:30;;;;;;;9.23;3.02;;;;;;;28.52;40.40;100430.04;3671926;79;98895;-84
2022/06/13 12:13:38;;;;;;;10.40;1.92;;;;;;;28.40;40.67;100429.77;3686880;78;99170;-85
2022/06/13 12:19:05;;;;;;;5.90;1.72;;;;;;;28.51;40.49;100433.36;3668926;79;99006;-85
2022/06/13 12:24:39;;;;;;;6.60;1.70;;;;;;;28.43;39.82;100435.86;3543681;80;26504;-85
2022/06/13 12:30:09;;;;;;;5.28;1.57;;;;;;;28.34;37.67;100433.80;3671004;79;99074;-86
2022/06/13 12:35:27;;;;;;;4.70;1.35;;;;;;;28.59;38.26;100423.92;3681641;79;98711;-86
2022/06/13 12:40:45;;;;;;;6.95;1.50;;;;;;;28.78;37.41;100432.85;3627661;79;98757;-84
2022/06/13 12:46:00;;;;;;;7.97;1.50;;;;;;;28.79;36.82;100449.98;3675399;78;99169;-83
2022/06/13 12:51:34;;;;;;;9.98;1.55;;;;;;;28.89;36.39;100444.28;3662619;78;99373;-82
2022/06/13 12:56:58;;;;;;;8.33;2.30;;;;;;;29.34;37.36;100430.61;3622508;78;99407;-81
2022/06/13 13:02:26;;;;;;;7.22;1.35;;;;;;;29.64;35.78;100424.13;3669191;78;98780;-84
2022/06/13 13:07:58;;;;;;;7.95;1.50;;;;;;;29.57;34.41;100433.12;3669490;78;99004;-82
2022/06/13 13:13:36;;;;;;;4.53;1.27;;;;;;;29.58;34.98;100453.09;3674383;80;25852;-84
2022/06/13 13:19:07;;;;;;;5.42;1.60;;;;;;;29.36;34.39;100457.18;3646606;79;98937;-81
2022/06/13 13:24:31;;;;;;;7.35;1.55;;;;;;;28.91;35.09;100458.09;3589302;80;98784;-82
2022/06/13 13:30:02;;;;;;;5.03;1.57;;;;;;;29.01;34.65;100451.63;3591515;81;98664;-82
2022/06/13 13:35:14;;;;;;;4.35;1.57;;;;;;;28.87;35.08;100458.95;3693371;78;98864;-82
2022/06/13 13:40:29;;;;;;;4.62;1.60;;;;;;;28.63;35.14;100460.52;3673511;78;98808;-82
2022/06/13 13:45:57;;;;;;;6.30;2.12;;;;;;;28.44;35.17;100458.64;3676973;78;98860;-82
2022/06/13 13:51:21;;;;;;;6.90;1.50;;;;;;;28.30;34.84;100453.05;3668218;78;99053;-82
2022/06/13 13:56:40;;;;;;;6.90;1.67;;;;;;;28.25;35.49;100454.55;3671317;78;98900;-82
2022/06/13 14:01:56;;;;;;;6.62;2.00;;;;;;;28.14;35.38;100455.05;3690406;78;99250;-81
2022/06/13 14:07:28;;;;;;;5.73;1.73;;;;;;;27.86;35.66;100450.47;3688611;78;99021;-81
2022/06/13 14:12:29;;;;;;;4.60;1.22;;;;;;;27.49;35.85;100446.58;3636917;79;97645;-81
2022/06/13 14:17:44;;;;;;;5.10;1.60;;;;;;;27.23;36.13;100443.46;3674748;78;98824;-82
2022/06/13 14:22:49;;;;;;;6.25;1.50;;;;;;;27.18;36.92;100439.29;3642494;78;98884;-82
2022/06/13 14:28:03;;;;;;;4.22;1.27;;;;;;;26.86;36.19;100443.74;3598280;80;98890;-82
2022/06/13 14:33:04;;;;;;;6.60;1.70;;;;;;;26.55;36.74;100442.81;3574376;81;98944;-81
2022/06/13 14:38:22;;;;;;;6.97;1.70;;;;;;;26.29;34.85;100431.11;3585974;81;98844;-81
2022/06/13 14:43:31;;;;;;;5.58;1.47;;;;;;;25.99;36.05;100430.91;3605170;80;25872;-81
2022/06/13 14:48:49;;;;;;;6.92;1.75;;;;;;;26.01;36.88;100428.38;3575348;81;99490;-81
2022/06/13 14:54:06;;;;;;;5.45;1.50;;;;;;;25.93;36.67;100432.83;3591605;80;99178;-81
2022/06/13 14:59:10;;;;;;;6.77;1.50;;;;;;;25.81;36.17;100436.63;3579331;81;98877;-82
2022/06/13 15:04:19;;;;;;;5.33;1.95;;;;;;;25.45;36.36;100441.09;3597927;81;99231;-81
2022/06/13 15:09:49;;;;;;;5.50;1.42;;;;;;;25.28;36.54;100451.20;3596452;81;99174;-80
2022/06/13 15:15:07;;;;;;;6.65;2.35;;;;;;;25.20;37.42;100446.52;3591083;81;99252;-80
2022/06/13 15:20:25;;;;;;;7.15;1.92;;;;;;;25.13;37.48;100455.92;3531629;82;98808;-81
2022/06/13 15:25:47;;;;;;;11.63;2.52;;;;;;;24.92;37.21;100450.69;3583793;80;25842;-80
2022/06/13 15:31:08;;;;;;;8.45;1.80;;;;;;;24.67;37.28;100451.05;3647580;78;98848;-80
2022/06/13 15:36:14;;;;;;;5.45;1.70;;;;;;;24.48;37.72;100452.32;3671301;78;98606;-80
2022/06/13 15:41:34;;;;;;;7.20;1.70;;;;;;;24.23;38.04;100464.50;3644531;78;98868;-81
2022/06/13 15:46:46;;;;;;;9.63;1.82;;;;;;;24.04;38.09;100463.71;3670474;78;99413;-79
2022/06/13 15:52:03;;;;;;;6.33;1.50;;;;;;;23.82;38.53;100467.25;3667779;78;99231;-81
2022/06/13 15:57:15;;;;;;;3.50;1.20;;;;;;;23.46;37.62;100461.56;3665714;78;99402;-81
2022/06/13 16:02:19;;;;;;;8.80;1.70;;;;;;;23.09;37.60;100463.23;3661456;78;99253;-79
2022/06/13 16:07:28;;;;;;;6.50;1.40;;;;;;;22.68;38.27;100475.64;3650863;78;98904;-79
2022/06/13 16:12:34;;;;;;;7.00;1.47;;;;;;;22.53;38.42;100471.82;3667273;78;98649;-80
2022/06/13 16:17:43;;;;;;;5.80;1.80;;;;;;;22.34;38.57;100478.48;3673574;78;99045;-80
2022/06/13 16:22:48;;;;;;;5.90;1.50;;;;;;;22.02;38.94;100485.84;3665478;78;99389;-81
2022/06/13 16:27:50;;;;;;;5.85;1.60;;;;;;;21.83;39.16;100498.72;3674104;78;99442;-80
2022/06/13 16:32:53;;;;;;;6.85;1.62;;;;;;;21.72;39.67;100503.30;3682759;78;99276;-81
2022/06/13 16:38:05;;;;;;;5.42;1.62;;;;;;;21.55;39.86;100510.23;3680112;78;98992;-80
2022/06/13 16:43:17;;;;;;;4.72;1.42;;;;;;;21.44;40.20;100503.39;3690402;78;26412;-80
2022/06/13 16:48:20;;;;;;;4.78;1.47;;;;;;;21.39;40.78;100512.35;3672052;78;99059;-80
2022/06/13 16:53:21;;;;;;;4.95;1.20;;;;;;;21.25;40.46;100510.78;3652995;78;98643;-80
2022/06/13 16:58:31;;;;;;;3.83;1.30;;;;;;;21.16;41.17;100516.28;3676633;78;98882;-81
2022/06/13 17:04:03;;;;;;;4.70;1.52;;;;;;;21.13;41.42;100530.36;3684400;78;99257;-81
2022/06/13 17:09:10;;;;;;;3.93;1.30;;;;;;;21.03;41.73;100527.29;3660461;78;99190;-81
2022/06/13 17:14:11;;;;;;;4.42;1.35;;;;;;;20.86;41.86;100546.13;3692208;78;99223;-81
2022/06/13 17:19:15;;;;;;;5.57;1.20;;;;;;;20.68;41.88;100551.45;3677812;78;99026;-80
2022/06/13 17:24:16;;;;;;;3.65;1.05;;;;;;;20.51;41.77;100554.72;3694003;78;98630;-80
2022/06/13 17:34:41;;;;;;;6.97;1.30;;;;;;;20.21;43.03;100569.13;3676247;78;98845;-81
2022/06/13 17:39:42;;;;;;;6.30;1.60;;;;;;;20.05;42.92;100572.67;3666977;78;98877;-81
2022/06/13 17:44:45;;;;;;;3.63;1.27;;;;;;;19.90;43.58;100577.03;3677277;78;99140;-81
2022/06/13 17:49:46;;;;;;;3.25;1.20;;;;;;;19.85;44.15;100576.19;3656514;80;98800;-81
2022/06/13 17:54:47;;;;;;;3.43;1.30;;;;;;;19.78;44.06;100581.15;3681189;78;98490;-80
2022/06/13 17:59:50;;;;;;;5.37;1.17;;;;;;;19.74;44.74;100584.03;3666035;78;98442;-81
2022/06/13 18:04:53;;;;;;;4.15;1.50;;;;;;;19.71;44.93;100579.30;3677105;78;98939;-81
2022/06/13 18:09:57;;;;;;;4.42;1.62;;;;;;;19.65;45.01;100584.44;3651512;78;98800;-81
2022/06/13 18:14:58;;;;;;;5.12;1.52;;;;;;;19.54;44.94;100588.08;3677703;78;99283;-81
2022/06/13 18:20:00;;;;;;;6.90;1.20;;;;;;;19.42;45.59;100589.56;3675085;78;99250;-81
2022/06/13 18:25:04;;;;;;;7.00;1.62;;;;;;;19.26;46.36;100596.49;3675455;78;26336;-81
2022/06/13 18:30:12;;;;;;;3.80;1.22;;;;;;;19.12;46.70;100600.17;3669865;78;98651;-81
2022/06/13 18:35:15;;;;;;;6.03;1.47;;;;;;;19.00;47.74;100605.77;3575225;80;98780;-81
2022/06/13 18:40:22;;;;;;;5.25;1.57;;;;;;;18.85;48.34;100610.68;3669336;78;98769;-81
2022/06/13 18:45:22;;;;;;;6.12;1.60;;;;;;;18.59;48.51;100612.97;3667471;78;98918;-81
2022/06/13 18:50:23;;;;;;;6.75;1.37;;;;;;;18.44;49.91;100622.20;3601500;80;99221;-81
2022/06/13 18:55:25;;;;;;;4.00;1.33;;;;;;;18.33;50.83;100619.41;3698657;78;43108;-81
2022/06/13 19:00:27;;;;;;;5.90;1.40;;;;;;;18.16;52.03;100633.00;3682003;78;99091;-81
2022/06/13 19:05:29;;;;;;;6.03;1.50;;;;;;;18.03;52.35;100646.73;3674354;78;99021;-83
2022/06/13 19:10:32;;;;;;;2.67;1.10;;;;;;;17.90;53.45;100649.92;3668372;79;99120;-83
2022/06/13 19:15:34;;;;;;;5.85;1.47;;;;;;;17.77;54.76;100655.10;3683160;79;99191;-83
2022/06/13 19:20:36;;;;;;;4.72;1.57;;;;;;;17.66;56.17;100664.21;3673112;79;98882;-83
2022/06/13 19:25:41;;;;;;;2.85;1.40;;;;;;;17.57;57.54;100669.49;3687750;79;26409;-83
2022/06/13 19:30:44;;;;;;;5.10;1.95;;;;;;;17.44;57.91;100677.60;3699910;78;98690;-82
2022/06/13 19:35:50;;;;;;;5.10;1.47;;;;;;;17.31;59.39;100676.56;3696324;78;99010;-81
2022/06/13 19:40:54;;;;;;;;;;;;;;;17.23;60.17;100687.56;3655466;78;98869;-82
2022/06/13 19:45:58;;;;;;;4.25;1.77;;;;;;;17.13;62.17;100691.28;3701793;78;85046;-81
2022/06/13 19:51:03;;;;;;;4.92;1.52;;;;;;;16.99;60.64;100688.65;3684130;78;98710;-82
2022/06/13 19:56:09;;;;;;;5.22;2.20;;;;;;;16.89;62.72;100699.27;3691920;78;99230;-81
2022/06/13 20:01:17;;;;;;;4.23;1.70;;;;;;;16.78;63.76;100702.77;3632829;79;98721;-83
2022/06/13 20:11:43;;;;;;;6.27;1.90;;;;;;;16.57;65.15;100705.73;3629045;79;98707;-82
2022/06/13 20:16:48;;;;;;;6.72;3.12;;;;;;;16.43;66.14;100711.43;3669610;78;99223;-82
2022/06/13 20:21:51;;;;;;;10.25;4.65;;;;;;;16.31;66.91;100708.31;3702040;78;99176;-83
2022/06/13 20:26:52;;;;;;;7.78;3.45;;;;;;;16.20;68.11;100709.80;3655387;78;98979;-82
2022/06/13 20:32:01;;;;;;;8.63;3.13;;;;;;;16.09;68.52;100706.89;3623145;79;98777;-82
2022/06/13 20:37:08;;;;;;;4.67;2.47;;;;;;;16.00;69.45;100712.10;3617687;79;98802;-85
2022/06/13 20:42:10;;;;;;;5.93;2.80;;;;;;;15.90;69.87;100714.34;3626745;79;97897;-86
2022/06/13 20:47:11;;;;;;;6.37;2.33;;;;;;;15.79;70.61;100713.61;3626925;79;98916;-86
2022/06/13 20:52:13;;;;;;;7.53;3.07;;;;;;;15.70;70.73;100709.13;3630385;80;98937;-86
2022/06/13 20:57:15;;;;;;;9.40;2.98;;;;;;;15.55;70.94;100710.38;3627388;80;99246;-87
2022/06/13 21:02:20;;;;;;;9.13;2.95;;;;;;;15.46;71.91;100716.95;3629223;79;99235;-86
2022/06/13 21:07:25;;;;;;;9.05;3.10;;;;;;;15.36;72.07;100715.03;3625515;80;99059;-87
2022/06/13 21:12:27;;;;;;;7.80;2.67;;;;;;;15.25;72.78;100717.79;3607260;79;98928;-86
2022/06/13 21:17:28;;;;;;;7.57;3.27;;;;;;;15.13;73.20;100717.43;3623578;79;99201;-86
2022/06/13 21:22:29;;;;;;;8.20;2.77;;;;;;;15.01;73.44;100722.82;3682911;79;98905;-87
2022/06/13 21:27:31;;;;;;;6.17;2.43;;;;;;;14.92;73.39;100721.05;3687090;78;99144;-86
2022/06/13 21:32:32;;;;;;;6.33;2.47;;;;;;;14.85;74.04;100728.00;3681866;78;98754;-86
2022/06/13 21:37:33;;;;;;;5.23;2.30;;;;;;;14.78;74.42;100724.44;3693836;78;98784;-85
2022/06/13 21:42:35;;;;;;;6.07;2.03;;;;;;;14.69;74.73;100723.47;3688826;78;98576;-86
2022/06/13 21:47:37;;;;;;;8.87;2.37;;;;;;;14.58;74.71;100725.45;3699276;78;99094;-85
2022/06/13 21:52:38;;;;;;;4.78;1.87;;;;;;;14.48;75.39;100717.93;3669691;79;98793;-86
2022/06/13 21:57:40;;;;;;;8.63;2.30;;;;;;;14.41;75.44;100722.09;3698292;78;98803;-86
2022/06/13 22:02:41;;;;;;;5.30;2.00;;;;;;;14.36;75.87;100728.02;3680659;78;98940;-86
2022/06/13 22:07:42;;;;;;;5.47;1.90;;;;;;;14.29;75.87;100737.69;3668230;78;99029;-86
2022/06/13 22:12:49;;;;;;;5.23;1.87;;;;;;;14.13;74.75;100733.70;3684996;79;98826;-86
2022/06/13 22:17:49;;;;;;;;;;;;;;;14.03;75.07;100733.88;3689421;79;99070;-86
2022/06/13 22:22:50;;;;;;;5.08;1.90;;;;;;;14.01;78.42;100746.53;3671178;79;84925;-86
2022/06/13 22:27:52;;;;;;;6.77;1.83;;;;;;;13.96;77.01;100742.77;3687859;79;99211;-86
2022/06/13 22:32:54;;;;;;;3.70;2.10;;;;;;;13.94;77.39;100740.95;3681584;79;99119;-86
2022/06/13 22:37:55;;;;;;;5.80;2.05;;;;;;;13.88;77.85;100743.91;3666603;79;99089;-85
2022/06/13 22:42:57;;;;;;;7.15;2.35;;;;;;;13.80;77.95;100735.41;3653935;79;33223;-86
2022/06/13 22:53:21;;;;;;;6.45;2.22;;;;;;;13.69;77.00;100758.86;3685343;79;98799;-86
2022/06/13 22:58:23;;;;;;;5.17;1.97;;;;;;;13.60;78.94;100758.45;3679304;79;98822;-86
2022/06/13 23:03:24;;;;;;;5.63;2.30;;;;;;;13.60;79.82;100760.41;3677443;79;98986;-86
2022/06/13 23:08:25;;;;;;;5.43;1.70;;;;;;;13.59;80.54;100752.73;3644060;79;98904;-86
2022/06/13 23:13:26;;;;;;;5.97;2.00;;;;;;;13.59;80.64;100762.98;3649958;79;33194;-85
2022/06/13 23:18:27;;;;;;;4.90;1.90;;;;;;;13.53;80.66;100760.39;3657670;79;99003;-86
2022/06/13 23:23:28;;;;;;;3.60;1.80;;;;;;;13.50;80.91;100768.87;3661447;79;98987;-86
2022/06/13 23:28:29;;;;;;;5.83;2.00;;;;;;;13.42;81.06;100765.86;3617161;79;99012;-86
2022/06/13 23:33:30;;;;;;;5.27;2.00;;;;;;;13.33;80.88;100772.34;3601317;81;98891;-86
2022/06/13 23:38:31;;;;;;;5.17;2.00;;;;;;;13.27;80.94;100768.38;3589216;81;98947;-86
2022/06/13 23:43:32;;;;;;;5.03;1.83;;;;;;;13.17;81.30;100775.20;3609645;81;33156;-86
2022/06/13 23:48:33;;;;;;;7.33;2.63;;;;;;;13.12;81.98;100766.69;3585546;81;98863;-87
2022/06/13 23:53:34;;;;;;;5.70;2.33;;;;;;;13.11;82.32;100776.17;3602705;81;99068;-86
2022/06/13 23:58:36;;;;;;;6.70;2.12;;;;;;;13.08;82.41;100770.62;3596491;80;99296;-86
